createdAt,value
2023-03-08T00:01:30.361Z,20.45
2023-03-08T00:03:59.890Z,18.88
2023-03-08T00:06:29.079Z,20.00
2023-03-08T00:08:59.560Z,20.40
2023-03-08T00:11:30.183Z,18.38
2023-03-08T00:13:59.344Z,18.33
2023-03-08T00:16:28.075Z,18.92
2023-03-08T00:18:56.846Z,19.13
2023-03-08T00:21:25.715Z,19.30
2023-03-08T00:23:55.098Z,16.88
2023-03-08T00:26:24.023Z,18.80
2023-03-08T00:28:54.377Z,19.65
2023-03-08T00:31:23.519Z,16.30
2023-03-08T00:33:55.869Z,15.52
2023-03-08T00:36:24.874Z,14.35
2023-03-08T00:38:53.773Z,12.07
2023-03-08T00:41:22.744Z,16.40
2023-03-08T00:43:53.001Z,15.88
2023-03-08T00:46:21.922Z,12.07
2023-03-08T00:48:50.754Z,14.32
2023-03-08T00:51:21.537Z,12.82
2023-03-08T00:53:51.141Z,11.70
2023-03-08T00:56:20.003Z,9.73
2023-03-08T00:58:48.869Z,12.13
2023-03-08T01:01:20.516Z,12.50
2023-03-08T01:03:51.225Z,12.82
2023-03-08T01:06:20.153Z,13.75
2023-03-08T01:08:48.894Z,15.18
2023-03-08T01:11:19.276Z,13.77
2023-03-08T01:13:49.286Z,12.77
2023-03-08T01:16:21.783Z,14.43
2023-03-08T01:18:50.618Z,13.00
2023-03-08T01:21:21.815Z,14.73
2023-03-08T01:23:51.346Z,16.90
2023-03-08T01:26:22.263Z,15.70
2023-03-08T01:28:52.283Z,15.80
2023-03-08T01:31:23.839Z,13.75
2023-03-08T01:33:54.452Z,14.43
2023-03-08T01:36:25.332Z,12.60
2023-03-08T01:38:54.420Z,14.02
2023-03-08T01:41:24.906Z,13.95
2023-03-08T01:43:53.901Z,12.52
2023-03-08T01:46:27.596Z,12.80
2023-03-08T01:49:26.941Z,12.95
2023-03-08T01:54:30.732Z,15.98
2023-03-08T01:57:03.545Z,13.25
2023-03-08T01:59:34.758Z,12.60
2023-03-08T02:02:05.242Z,11.05
2023-03-08T02:04:36.219Z,10.98
2023-03-08T02:07:04.861Z,12.15
2023-03-08T02:09:33.664Z,14.05
2023-03-08T02:12:07.248Z,13.35
2023-03-08T02:14:36.503Z,12.00
2023-03-08T02:17:06.728Z,12.65
2023-03-08T02:19:41.282Z,12.63
2023-03-08T02:22:13.267Z,12.48
2023-03-08T02:24:44.150Z,13.85
2023-03-08T02:27:18.130Z,12.73
2023-03-08T02:29:47.043Z,13.48
2023-03-08T02:32:17.863Z,13.32
2023-03-08T02:34:46.730Z,10.70
2023-03-08T02:37:15.449Z,11.43
2023-03-08T02:39:45.555Z,13.45
2023-03-08T02:42:14.282Z,12.32
2023-03-08T02:44:45.123Z,8.90
2023-03-08T02:47:14.051Z,11.18
2023-03-08T02:49:42.817Z,10.77
2023-03-08T02:52:11.976Z,12.40
2023-03-08T02:54:40.744Z,12.95
2023-03-08T02:57:10.865Z,15.98
2023-03-08T02:59:40.671Z,13.77
2023-03-08T03:02:09.704Z,13.55
2023-03-08T03:04:38.804Z,11.10
2023-03-08T03:07:07.691Z,13.10
2023-03-08T03:09:37.578Z,10.23
2023-03-08T03:12:06.662Z,12.40
2023-03-08T03:14:40.450Z,12.05
2023-03-08T03:17:09.381Z,10.43
2023-03-08T03:19:39.680Z,9.70
2023-03-08T03:22:08.482Z,8.50
2023-03-08T03:24:37.683Z,10.15
2023-03-08T03:27:08.150Z,9.15
2023-03-08T03:29:41.030Z,7.57
2023-03-08T03:32:16.765Z,7.20
2023-03-08T03:34:45.889Z,8.77
2023-03-08T03:37:15.351Z,5.80
2023-03-08T03:39:44.503Z,7.38
2023-03-08T03:42:17.127Z,7.55
2023-03-08T03:44:56.730Z,4.35
2023-03-08T03:47:26.274Z,4.65
2023-03-08T03:49:59.332Z,6.68
2023-03-08T03:52:32.920Z,4.43
2023-03-08T03:55:06.718Z,3.72
2023-03-08T03:57:36.224Z,4.07
2023-03-08T04:00:07.968Z,4.97
2023-03-08T04:02:42.279Z,3.88
2023-03-08T04:05:14.356Z,4.28
2023-03-08T04:07:43.637Z,5.88
2023-03-08T04:10:13.163Z,5.70
2023-03-08T04:12:42.416Z,4.43
2023-03-08T04:15:12.948Z,3.45
2023-03-08T04:17:41.777Z,6.97
2023-03-08T04:20:11.643Z,4.00
2023-03-08T04:22:44.364Z,4.55
2023-03-08T04:25:21.480Z,3.05
2023-03-08T04:27:56.348Z,3.13
2023-03-08T04:30:26.588Z,3.47
2023-03-08T04:32:57.335Z,4.28
2023-03-08T04:35:32.371Z,4.32
2023-03-08T04:38:01.096Z,3.42
2023-03-08T04:40:31.128Z,4.20
2023-03-08T04:43:03.930Z,4.97
2023-03-08T04:45:39.717Z,5.72
2023-03-08T04:48:13.358Z,4.07
2023-03-08T04:50:42.411Z,5.63
2023-03-08T04:53:11.712Z,5.40
2023-03-08T04:55:40.873Z,4.07
2023-03-08T04:58:10.212Z,5.57
2023-03-08T05:00:40.494Z,4.28
2023-03-08T05:03:10.383Z,4.82
2023-03-08T05:05:39.319Z,5.22
2023-03-08T05:08:08.231Z,4.38
2023-03-08T05:10:39.175Z,4.72
2023-03-08T05:13:08.923Z,3.10
2023-03-08T05:15:37.748Z,3.47
2023-03-08T05:18:07.962Z,4.93
2023-03-08T05:20:39.018Z,3.88
2023-03-08T05:23:08.045Z,4.93
2023-03-08T05:25:44.952Z,4.38
2023-03-08T05:28:16.077Z,4.00
2023-03-08T05:30:47.253Z,3.42
2023-03-08T05:33:18.683Z,4.32
2023-03-08T05:35:55.420Z,4.22
2023-03-08T05:38:26.352Z,3.33
2023-03-08T05:40:56.064Z,3.65
2023-03-08T05:43:25.013Z,3.00
2023-03-08T05:45:58.460Z,3.67
2023-03-08T05:48:30.602Z,3.28
2023-03-08T05:51:00.005Z,3.45
2023-03-08T05:53:29.028Z,3.42
2023-03-08T05:55:58.504Z,4.55
2023-03-08T05:58:27.437Z,5.18
2023-03-08T06:00:56.377Z,2.97
2023-03-08T06:03:25.796Z,3.33
2023-03-08T06:05:56.038Z,3.88
2023-03-08T06:08:25.100Z,4.60
2023-03-08T06:10:54.183Z,4.32
2023-03-08T06:13:23.351Z,4.30
2023-03-08T06:15:56.673Z,3.00
2023-03-08T06:18:26.588Z,3.80
2023-03-08T06:21:02.329Z,3.22
2023-03-08T06:23:34.613Z,4.57
2023-03-08T06:26:05.762Z,4.03
2023-03-08T06:28:36.806Z,4.68
2023-03-08T06:31:06.326Z,5.22
2023-03-08T06:33:36.767Z,4.07
2023-03-08T06:36:09.105Z,5.57
2023-03-08T06:38:39.875Z,4.47
2023-03-08T06:41:09.535Z,6.07
2023-03-08T06:43:38.943Z,4.65
2023-03-08T06:46:08.985Z,5.82
2023-03-08T06:48:38.518Z,4.90
2023-03-08T06:51:10.456Z,7.18
2023-03-08T06:53:42.302Z,5.70
2023-03-08T06:56:14.620Z,4.90
2023-03-08T06:58:44.814Z,7.20
2023-03-08T07:01:14.929Z,6.57
2023-03-08T07:03:45.464Z,5.38
2023-03-08T07:06:16.309Z,3.90
2023-03-08T07:08:45.737Z,5.43
2023-03-08T07:11:14.691Z,6.28
2023-03-08T07:13:43.654Z,7.40
2023-03-08T07:16:14.245Z,4.10
2023-03-08T07:18:43.272Z,5.97
2023-03-08T07:21:12.394Z,4.60
2023-03-08T07:23:42.672Z,4.63
2023-03-08T07:26:12.424Z,4.40
2023-03-08T07:28:41.755Z,3.80
2023-03-08T07:31:13.111Z,5.45
2023-03-08T07:33:42.051Z,3.28
2023-03-08T07:36:11.157Z,4.18
2023-03-08T07:38:40.143Z,5.15
2023-03-08T07:41:10.603Z,3.38
2023-03-08T07:43:39.459Z,4.18
2023-03-08T07:46:16.339Z,4.22
2023-03-08T07:48:45.228Z,3.65
2023-03-08T07:51:14.223Z,4.43
2023-03-08T07:53:43.032Z,3.13
2023-03-08T07:56:13.386Z,6.82
2023-03-08T07:58:42.205Z,4.38
2023-03-08T08:01:11.546Z,3.33
2023-03-08T08:03:41.095Z,2.75
2023-03-08T08:06:10.405Z,3.05
2023-03-08T08:08:39.266Z,3.28
2023-03-08T08:11:16.535Z,3.85
2023-03-08T08:13:46.928Z,2.35
2023-03-08T08:16:17.088Z,3.17
2023-03-08T08:18:46.088Z,4.57
2023-03-08T08:21:16.504Z,3.00
2023-03-08T08:23:45.742Z,5.40
2023-03-08T08:26:17.536Z,3.75
2023-03-08T08:28:48.187Z,5.93
2023-03-08T08:31:19.636Z,5.93
2023-03-08T08:33:48.431Z,3.08
2023-03-08T08:36:19.572Z,4.63
2023-03-08T08:38:49.014Z,4.18
2023-03-08T08:41:20.728Z,4.95
2023-03-08T08:43:50.665Z,2.90
2023-03-08T08:46:20.115Z,4.32
2023-03-08T08:48:48.922Z,2.97
2023-03-08T08:51:18.189Z,4.00
2023-03-08T08:53:46.887Z,4.95
2023-03-08T08:56:26.511Z,4.30
2023-03-08T08:59:01.460Z,3.17
2023-03-08T09:01:31.848Z,3.45
2023-03-08T09:04:01.312Z,4.60
2023-03-08T09:06:31.169Z,3.90
2023-03-08T09:09:00.780Z,4.03
2023-03-08T09:11:30.219Z,4.38
2023-03-08T09:14:02.371Z,5.00
2023-03-08T09:16:32.672Z,3.30
2023-03-08T09:19:04.429Z,3.40
2023-03-08T09:21:34.624Z,3.95
2023-03-08T09:24:06.075Z,4.50
2023-03-08T09:26:37.432Z,3.72
2023-03-08T09:29:12.049Z,6.13
2023-03-08T09:31:42.483Z,4.53
2023-03-08T09:34:14.290Z,4.22
2023-03-08T09:36:43.618Z,4.80
2023-03-08T09:39:14.302Z,5.45
2023-03-08T09:41:50.138Z,4.95
2023-03-08T09:44:49.523Z,5.80
2023-03-08T09:47:29.663Z,5.82
2023-03-08T09:50:10.046Z,6.47
2023-03-08T09:52:41.704Z,5.32
2023-03-08T09:55:18.797Z,5.47
2023-03-08T09:57:53.533Z,6.88
2023-03-08T10:00:33.077Z,4.78
2023-03-08T10:03:19.078Z,4.65
2023-03-08T10:05:54.925Z,6.05
2023-03-08T10:08:27.380Z,5.90
2023-03-08T10:11:01.457Z,4.63
2023-03-08T10:13:34.940Z,5.45
2023-03-08T10:16:13.861Z,4.35
2023-03-08T10:18:48.205Z,6.10
2023-03-08T10:21:19.442Z,5.13
2023-03-08T10:23:53.714Z,6.10
2023-03-08T10:26:22.597Z,5.35
2023-03-08T10:28:51.455Z,6.22
2023-03-08T10:31:25.910Z,5.28
2023-03-08T10:34:03.032Z,5.82
2023-03-08T10:36:32.356Z,5.47
2023-03-08T10:39:06.940Z,6.43
2023-03-08T10:41:43.551Z,6.57
2023-03-08T10:44:17.883Z,8.75
2023-03-08T10:46:51.844Z,6.80
2023-03-08T10:49:26.865Z,8.05
2023-03-08T10:51:58.480Z,8.88
2023-03-08T10:54:28.332Z,6.63
2023-03-08T10:56:59.772Z,5.70
2023-03-08T10:59:33.349Z,8.23
2023-03-08T11:02:18.333Z,6.32
2023-03-08T11:04:53.228Z,6.63
2023-03-08T11:07:24.643Z,6.72
2023-03-08T11:10:05.225Z,7.40
2023-03-08T11:12:34.131Z,7.35
2023-03-08T11:15:03.008Z,8.10
2023-03-08T11:17:39.478Z,12.95
2023-03-08T11:20:18.097Z,8.18
2023-03-08T11:22:59.282Z,9.00
2023-03-08T11:25:36.276Z,8.70
2023-03-08T11:28:33.457Z,9.98
2023-03-08T11:31:18.247Z,9.80
2023-03-08T11:34:21.791Z,8.90
2023-03-08T11:36:58.495Z,8.93
2023-03-08T11:39:31.147Z,9.07
2023-03-08T11:42:14.317Z,10.73
2023-03-08T11:45:09.894Z,12.98
2023-03-08T11:48:01.586Z,10.23
2023-03-08T11:50:34.905Z,12.88
2023-03-08T11:53:18.190Z,10.45
2023-03-08T11:56:00.062Z,11.25
2023-03-08T11:58:33.597Z,10.02
2023-03-08T12:01:03.733Z,10.90
2023-03-08T12:03:36.255Z,10.23
2023-03-08T12:06:26.546Z,9.88
2023-03-08T12:09:02.553Z,9.32
2023-03-08T12:11:34.439Z,9.93
2023-03-08T12:14:07.726Z,9.27
2023-03-08T12:16:44.054Z,11.35
2023-03-08T12:19:20.663Z,11.93
2023-03-08T12:21:54.044Z,10.48
2023-03-08T12:24:33.231Z,9.73
2023-03-08T12:27:07.187Z,8.60
2023-03-08T12:29:40.438Z,10.10
2023-03-08T12:32:12.176Z,10.45
2023-03-08T12:34:43.028Z,10.10
2023-03-08T12:37:25.281Z,11.43
2023-03-08T12:40:00.149Z,13.43
2023-03-08T12:42:38.698Z,13.45
2023-03-08T12:45:30.187Z,9.15
2023-03-08T12:48:09.663Z,10.75
2023-03-08T12:50:54.816Z,9.35
2023-03-08T12:53:28.227Z,12.27
2023-03-08T12:56:07.119Z,10.13
2023-03-08T12:58:39.275Z,9.00
2023-03-08T13:01:25.073Z,9.68
2023-03-08T13:03:53.957Z,9.90
2023-03-08T13:07:05.375Z,10.10
2023-03-08T13:09:39.306Z,11.07
2023-03-08T13:12:31.247Z,10.45
2023-03-08T13:15:03.493Z,10.38
2023-03-08T13:17:39.509Z,11.23
2023-03-08T13:20:18.715Z,11.15
2023-03-08T13:22:58.724Z,10.57
2023-03-08T13:25:45.771Z,11.25
2023-03-08T13:28:17.045Z,11.18
2023-03-08T13:30:52.292Z,10.63
2023-03-08T13:33:25.638Z,11.48
2023-03-08T13:35:59.380Z,13.43
2023-03-08T13:38:30.974Z,11.45
2023-03-08T13:41:01.595Z,11.52
2023-03-08T13:43:32.267Z,12.23
2023-03-08T13:46:03.269Z,10.10
2023-03-08T13:48:35.017Z,12.30
2023-03-08T13:51:05.132Z,13.52
2023-03-08T13:53:37.342Z,9.93
2023-03-08T13:56:09.352Z,11.15
2023-03-08T13:58:40.325Z,12.80
2023-03-08T14:01:13.445Z,11.90
2023-03-08T14:03:43.646Z,11.60
2023-03-08T14:06:20.172Z,12.73
2023-03-08T14:08:49.914Z,10.40
2023-03-08T14:11:23.003Z,11.27
2023-03-08T14:13:54.599Z,13.13
2023-03-08T14:16:31.482Z,9.80
2023-03-08T14:19:02.130Z,10.45
2023-03-08T14:21:31.657Z,11.13
2023-03-08T14:24:02.342Z,11.93
2023-03-08T14:26:35.016Z,14.27
2023-03-08T14:31:34.799Z,14.27
2023-03-08T14:34:05.769Z,10.70
2023-03-08T14:36:35.245Z,10.70
2023-03-08T14:39:04.784Z,13.55
2023-03-08T14:41:37.435Z,10.95
2023-03-08T14:46:35.317Z,9.93
2023-03-08T14:49:05.904Z,11.88
2023-03-08T14:51:41.961Z,11.27
2023-03-08T14:54:24.087Z,12.00
2023-03-08T14:56:54.346Z,13.73
2023-03-08T14:59:27.745Z,12.18
2023-03-08T15:01:57.201Z,14.13
2023-03-08T15:04:26.902Z,11.50
2023-03-08T15:06:56.024Z,13.75
2023-03-08T15:09:26.275Z,14.70
2023-03-08T15:11:59.839Z,14.20
2023-03-08T15:14:30.529Z,14.35
2023-03-08T15:16:59.457Z,14.18
2023-03-08T15:19:28.263Z,14.73
2023-03-08T15:21:57.315Z,12.45
2023-03-08T15:24:26.350Z,12.95
2023-03-08T15:26:57.214Z,13.50
2023-03-08T15:29:28.394Z,14.35
2023-03-08T15:31:58.045Z,13.82
2023-03-08T15:34:28.478Z,12.63
2023-03-08T15:36:57.642Z,14.98
2023-03-08T15:39:26.563Z,11.13
2023-03-08T15:41:56.803Z,13.52
2023-03-08T15:44:25.926Z,16.45
2023-03-08T15:46:54.762Z,16.95
2023-03-08T15:49:23.657Z,13.65
2023-03-08T15:51:52.782Z,13.23
2023-03-08T15:54:21.516Z,13.98
2023-03-08T15:56:50.452Z,16.17
2023-03-08T15:59:20.723Z,13.77
2023-03-08T16:01:49.591Z,16.50
2023-03-08T16:04:18.475Z,14.98
2023-03-08T16:06:47.210Z,15.82
2023-03-08T16:09:16.189Z,14.15
2023-03-08T16:11:46.633Z,16.10
2023-03-08T16:14:17.910Z,16.17
2023-03-08T16:16:48.105Z,13.70
2023-03-08T16:19:17.119Z,13.82
2023-03-08T16:21:45.797Z,14.80
2023-03-08T16:24:14.914Z,15.13
2023-03-08T16:26:44.066Z,16.45
2023-03-08T16:29:12.849Z,15.75
2023-03-08T16:31:41.849Z,20.35
2023-03-08T16:34:13.450Z,17.80
2023-03-08T16:36:42.388Z,18.23
2023-03-08T16:39:11.215Z,15.10
2023-03-08T16:41:41.364Z,14.85
2023-03-08T16:44:19.450Z,17.55
2023-03-08T16:46:48.417Z,16.67
2023-03-08T16:49:19.456Z,20.38
2023-03-08T16:51:50.437Z,18.38
2023-03-08T16:54:19.206Z,17.20
2023-03-08T16:56:47.940Z,16.98
2023-03-08T16:59:17.575Z,18.02
2023-03-08T17:01:47.467Z,17.15
2023-03-08T17:04:16.216Z,19.15
2023-03-08T17:06:47.347Z,16.48
2023-03-08T17:09:16.116Z,19.55
2023-03-08T17:11:45.630Z,19.35
2023-03-08T17:14:15.352Z,29.52
2023-03-08T17:16:44.523Z,18.98
2023-03-08T17:19:14.426Z,19.77
2023-03-08T17:21:43.376Z,18.92
2023-03-08T17:24:15.762Z,19.40
2023-03-08T17:26:46.926Z,21.15
2023-03-08T17:29:16.184Z,26.05
2023-03-08T17:31:45.220Z,17.83
2023-03-08T17:34:14.293Z,20.70
2023-03-08T17:36:43.758Z,21.33
2023-03-08T17:39:14.245Z,19.20
2023-03-08T17:41:44.839Z,22.45
2023-03-08T17:44:14.160Z,19.88
2023-03-08T17:46:43.171Z,21.50
2023-03-08T17:49:13.173Z,19.50
2023-03-08T17:51:42.580Z,20.88
2023-03-08T17:54:11.854Z,20.70
2023-03-08T17:56:42.315Z,23.35
2023-03-08T17:59:15.055Z,20.58
2023-03-08T18:01:44.576Z,20.10
2023-03-08T18:04:13.426Z,23.70
2023-03-08T18:06:43.669Z,20.67
2023-03-08T18:09:14.597Z,27.15
2023-03-08T18:11:44.891Z,20.65
2023-03-08T18:14:15.284Z,25.02
2023-03-08T18:16:44.913Z,22.15
2023-03-08T18:19:13.970Z,24.65
2023-03-08T18:21:43.046Z,25.92
2023-03-08T18:24:13.509Z,26.02
2023-03-08T18:26:45.243Z,30.10
2023-03-08T18:29:15.444Z,28.75
2023-03-08T18:31:44.862Z,27.02
2023-03-08T18:34:13.768Z,23.42
2023-03-08T18:36:42.563Z,26.17
2023-03-08T18:39:14.614Z,25.17
2023-03-08T18:41:43.510Z,26.15
2023-03-08T18:44:14.745Z,21.80
2023-03-08T18:46:43.889Z,28.00
2023-03-08T18:49:13.898Z,24.25
2023-03-08T18:51:44.080Z,29.73
2023-03-08T18:54:15.648Z,25.23
2023-03-08T18:56:44.754Z,23.35
2023-03-08T18:59:15.846Z,25.45
2023-03-08T19:01:45.352Z,25.02
2023-03-08T19:04:14.484Z,25.90
2023-03-08T19:06:43.370Z,26.50
2023-03-08T19:09:13.307Z,29.40
2023-03-08T19:11:42.849Z,27.45
2023-03-08T19:14:14.088Z,25.95
2023-03-08T19:16:43.239Z,23.67
2023-03-08T19:19:14.374Z,27.60
2023-03-08T19:21:44.832Z,24.38
2023-03-08T19:24:14.498Z,25.45
2023-03-08T19:26:47.267Z,28.70
2023-03-08T19:29:20.572Z,23.45
2023-03-08T19:31:51.780Z,24.52
2023-03-08T19:34:21.634Z,22.40
2023-03-08T19:36:51.437Z,24.42
2023-03-08T19:39:23.164Z,28.45
2023-03-08T19:41:53.922Z,24.80
2023-03-08T19:44:24.992Z,23.95
2023-03-08T19:46:55.958Z,23.45
2023-03-08T19:49:29.521Z,26.67
2023-03-08T19:52:00.108Z,24.25
2023-03-08T19:54:30.085Z,22.65
2023-03-08T19:56:59.792Z,20.70
2023-03-08T19:59:30.014Z,21.17
2023-03-08T20:01:59.227Z,19.80
2023-03-08T20:04:29.367Z,20.05
2023-03-08T20:07:00.992Z,21.60
2023-03-08T20:09:30.094Z,21.88
2023-03-08T20:11:59.286Z,24.08
2023-03-08T20:14:29.751Z,23.05
2023-03-08T20:16:59.161Z,21.75
2023-03-08T20:19:30.402Z,21.33
2023-03-08T20:21:59.375Z,21.58
2023-03-08T20:24:28.598Z,20.05
2023-03-08T20:26:59.241Z,19.98
2023-03-08T20:29:32.227Z,22.15
2023-03-08T20:32:03.754Z,21.27
2023-03-08T20:34:32.777Z,22.17
2023-03-08T20:37:01.543Z,22.17
2023-03-08T20:39:30.418Z,19.30
2023-03-08T20:41:59.157Z,20.63
2023-03-08T20:44:28.147Z,22.20
2023-03-08T20:46:58.620Z,20.05
2023-03-08T20:49:28.688Z,21.33
2023-03-08T20:51:57.484Z,20.95
2023-03-08T20:54:26.450Z,21.05
2023-03-08T20:56:55.278Z,21.05
2023-03-08T20:59:26.936Z,21.13
2023-03-08T21:01:57.571Z,21.10
2023-03-08T21:04:28.990Z,21.08
2023-03-08T21:06:58.148Z,24.67
2023-03-08T21:09:26.936Z,21.20
2023-03-08T21:11:55.954Z,20.02
2023-03-08T21:14:29.139Z,23.33
2023-03-08T21:17:05.074Z,18.90
2023-03-08T21:19:33.938Z,21.95
2023-03-08T21:22:03.541Z,19.95
2023-03-08T21:24:34.200Z,19.92
2023-03-08T21:27:03.404Z,19.02
2023-03-08T21:29:34.019Z,21.77
2023-03-08T21:32:05.062Z,18.67
2023-03-08T21:34:36.372Z,19.88
2023-03-08T21:37:05.138Z,20.88
2023-03-08T21:39:34.799Z,20.13
2023-03-08T21:42:03.842Z,18.95
2023-03-08T21:44:32.699Z,20.55
2023-03-08T21:47:03.157Z,20.65
2023-03-08T21:49:34.376Z,17.98
2023-03-08T21:52:03.800Z,20.92
2023-03-08T21:54:33.205Z,19.52
2023-03-08T21:57:02.253Z,21.05
2023-03-08T21:59:31.237Z,16.98
2023-03-08T22:02:00.136Z,19.42
2023-03-08T22:04:30.509Z,19.15
2023-03-08T22:06:59.238Z,18.65
2023-03-08T22:09:29.258Z,21.42
2023-03-08T22:12:00.977Z,20.13
2023-03-08T22:14:32.180Z,19.48
2023-03-08T22:17:01.915Z,17.58
2023-03-08T22:19:32.098Z,17.77
2023-03-08T22:22:01.047Z,17.33
2023-03-08T22:24:32.116Z,16.75
2023-03-08T22:27:01.417Z,19.05
2023-03-08T22:29:33.950Z,16.65
2023-03-08T22:32:02.994Z,17.92
2023-03-08T22:34:35.065Z,17.80
2023-03-08T22:37:05.130Z,15.45
2023-03-08T22:39:34.177Z,14.85
2023-03-08T22:42:03.175Z,14.07
2023-03-08T22:44:32.041Z,15.07
2023-03-08T22:47:02.510Z,12.40
2023-03-08T22:49:32.799Z,12.75
2023-03-08T22:52:01.656Z,12.48
2023-03-08T22:54:30.538Z,14.00
2023-03-08T22:56:59.662Z,10.25
2023-03-08T22:59:28.677Z,12.80
2023-03-08T23:01:57.716Z,11.15
2023-03-08T23:04:26.999Z,12.43
2023-03-08T23:06:57.151Z,10.70
2023-03-08T23:09:26.171Z,11.60
2023-03-08T23:11:54.995Z,10.73
2023-03-08T23:14:23.828Z,10.30
2023-03-08T23:16:52.775Z,10.45
2023-03-08T23:19:22.993Z,11.00
2023-03-08T23:21:51.917Z,9.05
2023-03-08T23:24:22.966Z,9.52
2023-03-08T23:26:53.717Z,9.93
2023-03-08T23:29:22.553Z,8.73
2023-03-08T23:31:51.268Z,11.90
2023-03-08T23:34:20.048Z,9.32
2023-03-08T23:36:48.913Z,10.43
2023-03-08T23:39:17.795Z,10.63
2023-03-08T23:41:47.979Z,12.10
2023-03-08T23:44:19.776Z,10.55
2023-03-08T23:46:49.393Z,10.35
2023-03-08T23:49:18.374Z,10.95
2023-03-08T23:51:47.195Z,11.93
2023-03-08T23:54:15.893Z,10.30
2023-03-08T23:56:44.803Z,10.77
2023-03-08T23:59:18.668Z,11.90
